sensor_id;sensor_type;location;lat;lon;timestamp;pressure;altitude;pressure_sealevel;temperature;humidity
6514;BME280;3290;47.716;9.070;2022-08-21T00:01:11;97131.19;;;19.08;100.00
6514;BME280;3290;47.716;9.070;2022-08-21T00:03:39;97133.03;;;19.18;100.00
6514;BME280;3290;47.716;9.070;2022-08-21T00:06:05;97132.25;;;19.17;100.00
6514;BME280;3290;47.716;9.070;2022-08-21T00:08:30;97129.56;;;19.02;100.00
6514;BME280;3290;47.716;9.070;2022-08-21T00:10:55;97124.81;;;19.04;100.00
6514;BME280;3290;47.716;9.070;2022-08-21T00:13:21;97122.16;;;19.09;100.00
6514;BME280;3290;47.716;9.070;2022-08-21T00:15:47;97122.94;;;19.05;100.00
6514;BME280;3290;47.716;9.070;2022-08-21T00:18:14;97124.25;;;19.02;100.00
6514;BME280;3290;47.716;9.070;2022-08-21T00:20:42;97120.56;;;19.08;100.00
6514;BME280;3290;47.716;9.070;2022-08-21T00:23:08;97118.69;;;19.14;100.00
6514;BME280;3290;47.716;9.070;2022-08-21T00:25:33;97124.81;;;19.14;100.00
6514;BME280;3290;47.716;9.070;2022-08-21T00:27:59;97115.19;;;18.98;100.00
6514;BME280;3290;47.716;9.070;2022-08-21T00:30:27;97114.09;;;18.94;100.00
6514;BME280;3290;47.716;9.070;2022-08-21T00:32:54;97113.63;;;19.07;100.00
6514;BME280;3290;47.716;9.070;2022-08-21T00:35:23;97110.75;;;19.19;100.00
6514;BME280;3290;47.716;9.070;2022-08-21T00:37:49;97107.84;;;19.40;100.00
6514;BME280;3290;47.716;9.070;2022-08-21T00:40:20;97105.19;;;19.35;100.00
6514;BME280;3290;47.716;9.070;2022-08-21T00:42:45;97103.06;;;19.27;100.00
6514;BME280;3290;47.716;9.070;2022-08-21T00:45:12;97103.88;;;19.37;100.00
6514;BME280;3290;47.716;9.070;2022-08-21T00:47:37;97096.69;;;19.43;100.00
6514;BME280;3290;47.716;9.070;2022-08-21T00:50:04;97099.31;;;19.28;100.00
6514;BME280;3290;47.716;9.070;2022-08-21T00:52:32;97093.47;;;19.21;100.00
6514;BME280;3290;47.716;9.070;2022-08-21T00:54:59;97098.25;;;19.24;100.00
6514;BME280;3290;47.716;9.070;2022-08-21T00:57:52;97085.00;;;19.29;100.00
6514;BME280;3290;47.716;9.070;2022-08-21T01:00:23;97081.78;;;19.37;100.00
6514;BME280;3290;47.716;9.070;2022-08-21T01:02:49;97094.81;;;19.38;100.00
6514;BME280;3290;47.716;9.070;2022-08-21T01:05:14;97080.75;;;19.43;100.00
6514;BME280;3290;47.716;9.070;2022-08-21T01:07:41;97086.03;;;19.53;100.00
6514;BME280;3290;47.716;9.070;2022-08-21T01:10:08;97080.75;;;19.67;100.00
6514;BME280;3290;47.716;9.070;2022-08-21T01:12:34;97085.00;;;19.64;100.00
6514;BME280;3290;47.716;9.070;2022-08-21T01:15:02;97087.38;;;19.70;100.00
6514;BME280;3290;47.716;9.070;2022-08-21T01:17:28;97089.78;;;19.71;100.00
6514;BME280;3290;47.716;9.070;2022-08-21T01:19:58;97090.84;;;19.66;100.00
6514;BME280;3290;47.716;9.070;2022-08-21T01:22:23;97088.72;;;19.63;100.00
6514;BME280;3290;47.716;9.070;2022-08-21T01:24:48;97088.72;;;19.67;100.00
6514;BME280;3290;47.716;9.070;2022-08-21T01:27:15;97081.81;;;19.47;100.00
6514;BME280;3290;47.716;9.070;2022-08-21T01:30:10;97089.53;;;19.53;100.00
6514;BME280;3290;47.716;9.070;2022-08-21T01:32:36;97087.91;;;19.57;100.00
6514;BME280;3290;47.716;9.070;2022-08-21T01:35:03;97087.13;;;19.57;100.00
6514;BME280;3290;47.716;9.070;2022-08-21T01:37:28;97094.03;;;19.48;100.00
6514;BME280;3290;47.716;9.070;2022-08-21T01:39:54;97090.84;;;19.61;100.00
6514;BME280;3290;47.716;9.070;2022-08-21T01:42:19;97085.00;;;19.64;100.00
6514;BME280;3290;47.716;9.070;2022-08-21T01:44:45;97092.97;;;19.54;100.00
6514;BME280;3290;47.716;9.070;2022-08-21T01:47:12;97086.34;;;19.51;100.00
6514;BME280;3290;47.716;9.070;2022-08-21T01:49:39;97085.53;;;19.56;100.00
6514;BME280;3290;47.716;9.070;2022-08-21T01:52:05;97074.34;;;19.49;100.00
6514;BME280;3290;47.716;9.070;2022-08-21T01:54:31;97081.03;;;19.51;100.00
6514;BME280;3290;47.716;9.070;2022-08-21T01:56:58;97077.03;;;19.64;100.00
6514;BME280;3290;47.716;9.070;2022-08-21T01:59:24;97075.94;;;19.60;100.00
6514;BME280;3290;47.716;9.070;2022-08-21T02:01:49;97071.16;;;19.66;100.00
6514;BME280;3290;47.716;9.070;2022-08-21T02:04:16;97066.41;;;19.59;100.00
6514;BME280;3290;47.716;9.070;2022-08-21T02:06:42;97062.13;;;19.58;100.00
6514;BME280;3290;47.716;9.070;2022-08-21T02:09:10;97063.75;;;19.59;100.00
6514;BME280;3290;47.716;9.070;2022-08-21T02:11:36;97057.38;;;19.55;100.00
6514;BME280;3290;47.716;9.070;2022-08-21T02:14:14;97054.69;;;19.60;100.00
6514;BME280;3290;47.716;9.070;2022-08-21T02:16:41;97056.28;;;19.51;100.00
6514;BME280;3290;47.716;9.070;2022-08-21T02:19:08;97058.94;;;19.61;100.00
6514;BME280;3290;47.716;9.070;2022-08-21T02:21:33;97056.28;;;19.51;100.00
6514;BME280;3290;47.716;9.070;2022-08-21T02:23:59;97059.50;;;19.48;100.00
6514;BME280;3290;47.716;9.070;2022-08-21T02:26:25;97057.34;;;19.60;100.00
6514;BME280;3290;47.716;9.070;2022-08-21T02:28:50;97056.81;;;19.53;100.00
6514;BME280;3290;47.716;9.070;2022-08-21T02:31:16;97055.22;;;19.27;100.00
6514;BME280;3290;47.716;9.070;2022-08-21T02:33:41;97059.72;;;19.26;100.00
6514;BME280;3290;47.716;9.070;2022-08-21T02:36:08;97053.63;;;19.31;100.00
6514;BME280;3290;47.716;9.070;2022-08-21T02:38:35;97055.25;;;19.32;100.00
6514;BME280;3290;47.716;9.070;2022-08-21T02:41:05;97058.41;;;19.49;100.00
6514;BME280;3290;47.716;9.070;2022-08-21T02:43:32;97058.41;;;19.49;100.00
6514;BME280;3290;47.716;9.070;2022-08-21T02:45:59;97056.03;;;19.37;100.00
6514;BME280;3290;47.716;9.070;2022-08-21T02:48:27;97055.75;;;19.24;100.00
6514;BME280;3290;47.716;9.070;2022-08-21T02:50:57;97053.88;;;19.25;100.00
6514;BME280;3290;47.716;9.070;2022-08-21T02:53:22;97049.09;;;19.36;100.00
6514;BME280;3290;47.716;9.070;2022-08-21T02:55:50;97047.78;;;19.29;100.00
6514;BME280;3290;47.716;9.070;2022-08-21T02:58:19;97046.19;;;19.18;100.00
6514;BME280;3290;47.716;9.070;2022-08-21T03:00:45;97043.78;;;19.17;100.00
6514;BME280;3290;47.716;9.070;2022-08-21T03:03:12;97040.59;;;19.25;100.00
6514;BME280;3290;47.716;9.070;2022-08-21T03:05:38;97044.06;;;19.20;100.00
6514;BME280;3290;47.716;9.070;2022-08-21T03:08:07;97053.63;;;19.36;100.00
6514;BME280;3290;47.716;9.070;2022-08-21T03:10:36;97055.75;;;19.44;100.00
6514;BME280;3290;47.716;9.070;2022-08-21T03:13:01;97043.00;;;19.36;100.00
6514;BME280;3290;47.716;9.070;2022-08-21T03:15:29;97053.63;;;19.46;100.00
6514;BME280;3290;47.716;9.070;2022-08-21T03:17:54;97042.47;;;19.54;100.00
6514;BME280;3290;47.716;9.070;2022-08-21T03:20:23;97042.47;;;19.59;100.00
6514;BME280;3290;47.716;9.070;2022-08-21T03:22:49;97046.72;;;19.50;100.00
6514;BME280;3290;47.716;9.070;2022-08-21T03:25:15;97042.47;;;19.44;100.00
6514;BME280;3290;47.716;9.070;2022-08-21T03:27:41;97043.53;;;19.38;100.00
6514;BME280;3290;47.716;9.070;2022-08-21T03:30:08;97045.66;;;19.41;100.00
6514;BME280;3290;47.716;9.070;2022-08-21T03:32:34;97043.78;;;19.56;100.00
6514;BME280;3290;47.716;9.070;2022-08-21T03:35:01;97051.53;;;19.48;100.00
6514;BME280;3290;47.716;9.070;2022-08-21T03:37:27;97047.00;;;19.58;100.00
6514;BME280;3290;47.716;9.070;2022-08-21T03:39:52;97043.53;;;19.43;100.00
6514;BME280;3290;47.716;9.070;2022-08-21T03:42:18;97046.72;;;19.50;100.00
6514;BME280;3290;47.716;9.070;2022-08-21T03:44:43;97049.38;;;19.50;100.00
6514;BME280;3290;47.716;9.070;2022-08-21T03:47:09;97044.84;;;19.50;100.00
6514;BME280;3290;47.716;9.070;2022-08-21T03:49:35;97049.38;;;19.50;100.00
6514;BME280;3290;47.716;9.070;2022-08-21T03:52:02;97050.97;;;19.41;100.00
6514;BME280;3290;47.716;9.070;2022-08-21T03:54:28;97045.66;;;19.51;100.00
6514;BME280;3290;47.716;9.070;2022-08-21T03:56:53;97048.03;;;19.42;100.00
6514;BME280;3290;47.716;9.070;2022-08-21T03:59:19;97060.00;;;19.45;100.00
6514;BME280;3290;47.716;9.070;2022-08-21T04:01:55;97059.75;;;19.41;100.00
6514;BME280;3290;47.716;9.070;2022-08-21T04:04:21;97058.94;;;19.56;100.00
6514;BME280;3290;47.716;9.070;2022-08-21T04:06:46;97061.59;;;19.66;100.00
6514;BME280;3290;47.716;9.070;2022-08-21T04:09:12;97061.06;;;19.54;100.00
6514;BME280;3290;47.716;9.070;2022-08-21T04:11:37;97060.78;;;19.40;100.00
6514;BME280;3290;47.716;9.070;2022-08-21T04:14:03;97061.06;;;19.24;100.00
6514;BME280;3290;47.716;9.070;2022-08-21T04:16:30;97067.44;;;19.23;100.00
6514;BME280;3290;47.716;9.070;2022-08-21T04:18:56;97067.44;;;19.23;100.00
6514;BME280;3290;47.716;9.070;2022-08-21T04:21:21;97072.75;;;19.23;100.00
6514;BME280;3290;47.716;9.070;2022-08-21T04:23:47;97067.97;;;19.15;100.00
6514;BME280;3290;47.716;9.070;2022-08-21T04:26:13;97060.53;;;19.17;100.00
6514;BME280;3290;47.716;9.070;2022-08-21T04:28:38;97066.38;;;19.19;100.00
6514;BME280;3290;47.716;9.070;2022-08-21T04:31:04;97063.19;;;19.22;100.00
6514;BME280;3290;47.716;9.070;2022-08-21T04:33:29;97054.94;;;19.33;100.00
6514;BME280;3290;47.716;9.070;2022-08-21T04:35:54;97055.75;;;19.34;100.00
6514;BME280;3290;47.716;9.070;2022-08-21T04:38:20;97057.34;;;19.45;100.00
6514;BME280;3290;47.716;9.070;2022-08-21T04:40:47;97056.28;;;19.31;100.00
6514;BME280;3290;47.716;9.070;2022-08-21T04:43:14;97057.09;;;19.41;100.00
6514;BME280;3290;47.716;9.070;2022-08-21T04:45:43;97064.78;;;19.23;100.00
6514;BME280;3290;47.716;9.070;2022-08-21T04:48:11;97064.00;;;19.32;100.00
6514;BME280;3290;47.716;9.070;2022-08-21T04:50:45;97061.06;;;19.19;100.00
6514;BME280;3290;47.716;9.070;2022-08-21T04:53:18;97057.88;;;19.22;100.00
6514;BME280;3290;47.716;9.070;2022-08-21T04:55:46;97063.22;;;19.32;100.00
6514;BME280;3290;47.716;9.070;2022-08-21T04:58:15;97066.94;;;19.41;100.00
6514;BME280;3290;47.716;9.070;2022-08-21T05:00:43;97069.56;;;19.31;100.00
6514;BME280;3290;47.716;9.070;2022-08-21T05:03:10;97072.22;;;19.26;100.00
6514;BME280;3290;47.716;9.070;2022-08-21T05:05:37;97077.28;;;19.32;100.00
6514;BME280;3290;47.716;9.070;2022-08-21T05:08:03;97076.47;;;19.22;100.00
6514;BME280;3290;47.716;9.070;2022-08-21T05:10:30;97078.59;;;19.15;100.00
6514;BME280;3290;47.716;9.070;2022-08-21T05:12:57;97081.22;;;19.10;100.00
6514;BME280;3290;47.716;9.070;2022-08-21T05:15:23;97085.50;;;19.06;100.00
6514;BME280;3290;47.716;9.070;2022-08-21T05:17:48;97083.38;;;19.18;100.00
6514;BME280;3290;47.716;9.070;2022-08-21T05:20:15;97084.19;;;19.19;100.00
6514;BME280;3290;47.716;9.070;2022-08-21T05:22:41;97082.06;;;19.26;100.00
6514;BME280;3290;47.716;9.070;2022-08-21T05:25:07;97086.84;;;19.33;100.00
6514;BME280;3290;47.716;9.070;2022-08-21T05:27:33;97087.66;;;19.34;100.00
6514;BME280;3290;47.716;9.070;2022-08-21T05:29:59;97088.16;;;19.46;100.00
6514;BME280;3290;47.716;9.070;2022-08-21T05:32:24;97085.00;;;19.39;100.00
6514;BME280;3290;47.716;9.070;2022-08-21T05:34:50;97094.03;;;19.38;100.00
6514;BME280;3290;47.716;9.070;2022-08-21T05:37:16;97087.59;;;19.14;100.00
6514;BME280;3290;47.716;9.070;2022-08-21T05:39:41;97091.34;;;19.23;100.00
6514;BME280;3290;47.716;9.070;2022-08-21T05:42:07;97094.56;;;19.25;100.00
6514;BME280;3290;47.716;9.070;2022-08-21T05:44:33;97088.69;;;19.33;100.00
6514;BME280;3290;47.716;9.070;2022-08-21T05:47:07;97081.78;;;19.37;100.00
6514;BME280;3290;47.716;9.070;2022-08-21T05:49:33;97091.88;;;19.35;100.00
6514;BME280;3290;47.716;9.070;2022-08-21T05:51:58;97091.09;;;19.34;100.00
6514;BME280;3290;47.716;9.070;2022-08-21T05:54:24;97100.69;;;19.35;100.00
6514;BME280;3290;47.716;9.070;2022-08-21T05:56:50;97095.88;;;19.42;100.00
6514;BME280;3290;47.716;9.070;2022-08-21T05:59:15;97092.16;;;19.28;100.00
6514;BME280;3290;47.716;9.070;2022-08-21T06:01:41;97085.00;;;19.34;100.00
6514;BME280;3290;47.716;9.070;2022-08-21T06:04:07;97077.03;;;19.34;100.00
6514;BME280;3290;47.716;9.070;2022-08-21T06:06:33;97084.47;;;19.52;100.00
6514;BME280;3290;47.716;9.070;2022-08-21T06:08:58;97071.69;;;19.73;100.00
6514;BME280;3290;47.716;9.070;2022-08-21T06:11:24;97084.72;;;19.70;100.00
6514;BME280;3290;47.716;9.070;2022-08-21T06:13:49;97089.00;;;19.51;100.00
6514;BME280;3290;47.716;9.070;2022-08-21T06:16:16;97089.00;;;19.46;100.00
6514;BME280;3290;47.716;9.070;2022-08-21T06:18:42;97088.72;;;19.63;100.00
6514;BME280;3290;47.716;9.070;2022-08-21T06:21:08;97087.94;;;19.62;100.00
6514;BME280;3290;47.716;9.070;2022-08-21T06:23:34;97088.69;;;19.53;100.00
6514;BME280;3290;47.716;9.070;2022-08-21T06:26:04;97097.78;;;19.62;100.00
6514;BME280;3290;47.716;9.070;2022-08-21T06:28:31;97092.97;;;19.73;100.00
6514;BME280;3290;47.716;9.070;2022-08-21T06:30:56;97090.84;;;19.56;100.00
6514;BME280;3290;47.716;9.070;2022-08-21T06:33:22;97095.34;;;19.70;100.00
6514;BME280;3290;47.716;9.070;2022-08-21T06:35:48;97084.47;;;19.81;100.00
6514;BME280;3290;47.716;9.070;2022-08-21T06:38:14;97093.53;;;19.85;100.00
6514;BME280;3290;47.716;9.070;2022-08-21T06:40:39;97091.13;;;19.99;100.00
6514;BME280;3290;47.716;9.070;2022-08-21T06:43:10;97088.16;;;20.10;100.00
6514;BME280;3290;47.716;9.070;2022-08-21T06:45:36;97086.50;;;20.34;100.00
6514;BME280;3290;47.716;9.070;2022-08-21T06:48:03;97089.44;;;20.22;100.00
6514;BME280;3290;47.716;9.070;2022-08-21T06:50:28;97083.34;;;20.27;100.00
6514;BME280;3290;47.716;9.070;2022-08-21T06:53:03;97091.06;;;20.13;100.00
6514;BME280;3290;47.716;9.070;2022-08-21T06:55:30;97088.00;;;20.59;100.00
6514;BME280;3290;47.716;9.070;2022-08-21T06:57:56;97090.94;;;20.58;100.00
6514;BME280;3290;47.716;9.070;2022-08-21T07:00:21;97082.06;;;20.82;100.00
6514;BME280;3290;47.716;9.070;2022-08-21T07:02:47;97088.94;;;20.93;100.00
6514;BME280;3290;47.716;9.070;2022-08-21T07:05:12;97091.75;;;21.11;100.00
6514;BME280;3290;47.716;9.070;2022-08-21T07:07:38;97085.38;;;21.12;100.00
6514;BME280;3290;47.716;9.070;2022-08-21T07:10:03;97079.50;;;21.53;100.00
6514;BME280;3290;47.716;9.070;2022-08-21T07:12:29;97083.06;;;21.39;100.00
6514;BME280;3290;47.716;9.070;2022-08-21T07:14:55;97089.47;;;21.33;100.00
6514;BME280;3290;47.716;9.070;2022-08-21T07:17:20;97092.38;;;21.41;100.00
6514;BME280;3290;47.716;9.070;2022-08-21T07:19:46;97084.53;;;21.60;100.00
6514;BME280;3290;47.716;9.070;2022-08-21T07:22:12;97088.22;;;21.21;100.00
6514;BME280;3290;47.716;9.070;2022-08-21T07:24:40;97090.78;;;21.40;100.00
6514;BME280;3290;47.716;9.070;2022-08-21T07:27:05;97086.63;;;21.25;100.00
6514;BME280;3290;47.716;9.070;2022-08-21T07:29:30;97085.88;;;21.57;100.00
6514;BME280;3290;47.716;9.070;2022-08-21T07:31:56;97085.91;;;21.52;100.00
6514;BME280;3290;47.716;9.070;2022-08-21T07:34:21;97089.91;;;21.07;100.00
6514;BME280;3290;47.716;9.070;2022-08-21T07:36:47;97092.63;;;21.02;100.00
6514;BME280;3290;47.716;9.070;2022-08-21T07:39:12;97088.34;;;21.06;100.00
6514;BME280;3290;47.716;9.070;2022-08-21T07:41:38;97084.81;;;21.58;100.00
6514;BME280;3290;47.716;9.070;2022-08-21T07:44:03;97085.81;;;21.95;100.00
6514;BME280;3290;47.716;9.070;2022-08-21T07:46:28;97079.41;;;22.24;100.00
6514;BME280;3290;47.716;9.070;2022-08-21T07:48:54;97074.00;;;22.29;98.83
6514;BME280;3290;47.716;9.070;2022-08-21T07:51:22;97083.22;;;22.65;96.84
6514;BME280;3290;47.716;9.070;2022-08-21T07:53:50;97079.91;;;22.50;96.41
6514;BME280;3290;47.716;9.070;2022-08-21T07:56:16;97079.50;;;22.09;95.34
6514;BME280;3290;47.716;9.070;2022-08-21T07:58:42;97075.88;;;22.01;94.62
6514;BME280;3290;47.716;9.070;2022-08-21T08:01:08;97073.88;;;22.39;96.85
6514;BME280;3290;47.716;9.070;2022-08-21T08:03:33;97074.44;;;22.36;99.08
6514;BME280;3290;47.716;9.070;2022-08-21T08:05:59;97069.78;;;22.23;100.00
6514;BME280;3290;47.716;9.070;2022-08-21T08:08:25;97078.94;;;23.05;95.56
6514;BME280;3290;47.716;9.070;2022-08-21T08:10:51;97069.31;;;22.86;96.05
6514;BME280;3290;47.716;9.070;2022-08-21T08:13:17;97072.72;;;22.92;96.40
6514;BME280;3290;47.716;9.070;2022-08-21T08:15:43;97070.22;;;23.00;96.40
6514;BME280;3290;47.716;9.070;2022-08-21T08:18:08;97073.41;;;22.79;98.64
6514;BME280;3290;47.716;9.070;2022-08-21T08:20:34;97062.94;;;22.82;97.22
6514;BME280;3290;47.716;9.070;2022-08-21T08:22:59;97058.66;;;23.23;96.13
6514;BME280;3290;47.716;9.070;2022-08-21T08:25:26;97063.25;;;23.54;91.10
6514;BME280;3290;47.716;9.070;2022-08-21T08:27:52;97060.53;;;23.04;93.80
6514;BME280;3290;47.716;9.070;2022-08-21T08:30:19;97062.41;;;23.22;89.05
6514;BME280;3290;47.716;9.070;2022-08-21T08:32:47;97058.63;;;23.59;91.20
6514;BME280;3290;47.716;9.070;2022-08-21T08:35:13;97062.91;;;24.05;91.54
6514;BME280;3290;47.716;9.070;2022-08-21T08:37:42;97057.09;;;23.72;88.37
6514;BME280;3290;47.716;9.070;2022-08-21T08:40:19;97057.06;;;24.03;86.18
6514;BME280;3290;47.716;9.070;2022-08-21T08:42:47;97057.19;;;24.25;86.49
6514;BME280;3290;47.716;9.070;2022-08-21T08:45:16;97053.84;;;24.59;84.47
6514;BME280;3290;47.716;9.070;2022-08-21T08:47:54;97054.94;;;24.32;85.91
6514;BME280;3290;47.716;9.070;2022-08-21T08:53:21;97048.41;;;25.13;81.47
6514;BME280;3290;47.716;9.070;2022-08-21T08:55:48;97040.41;;;24.86;81.33
6514;BME280;3290;47.716;9.070;2022-08-21T08:58:23;97036.94;;;24.19;82.79
6514;BME280;3290;47.716;9.070;2022-08-21T09:00:51;97039.69;;;24.01;84.94
6514;BME280;3290;47.716;9.070;2022-08-21T09:03:17;97041.50;;;24.85;81.92
6514;BME280;3290;47.716;9.070;2022-08-21T09:05:53;97037.75;;;24.59;81.83
6514;BME280;3290;47.716;9.070;2022-08-21T09:11:00;97033.09;;;25.70;77.25
6514;BME280;3290;47.716;9.070;2022-08-21T09:13:54;97024.78;;;25.15;77.97
6514;BME280;3290;47.716;9.070;2022-08-21T09:16:35;97031.75;;;25.37;76.43
6514;BME280;3290;47.716;9.070;2022-08-21T09:21:57;97033.81;;;25.19;77.69
6514;BME280;3290;47.716;9.070;2022-08-21T09:27:17;97024.03;;;25.01;77.42
6514;BME280;3290;47.716;9.070;2022-08-21T09:29:47;97025.91;;;24.87;80.41
6514;BME280;3290;47.716;9.070;2022-08-21T09:34:42;97021.09;;;25.68;77.04
6514;BME280;3290;47.716;9.070;2022-08-21T09:37:17;97027.22;;;24.76;78.96
6514;BME280;3290;47.716;9.070;2022-08-21T09:39:43;97021.88;;;24.50;80.72
6514;BME280;3290;47.716;9.070;2022-08-21T09:42:09;97017.56;;;24.89;78.88
6514;BME280;3290;47.716;9.070;2022-08-21T09:44:37;97014.41;;;24.87;79.65
6514;BME280;3290;47.716;9.070;2022-08-21T09:47:06;97010.91;;;24.99;78.63
6514;BME280;3290;47.716;9.070;2022-08-21T09:49:39;97004.81;;;25.64;75.14
6514;BME280;3290;47.716;9.070;2022-08-21T09:52:18;97001.66;;;25.71;75.72
6514;BME280;3290;47.716;9.070;2022-08-21T09:54:46;96998.72;;;26.11;72.34
6514;BME280;3290;47.716;9.070;2022-08-21T09:57:29;96996.47;;;27.15;69.35
6514;BME280;3290;47.716;9.070;2022-08-21T10:00:11;96991.09;;;26.34;71.27
6514;BME280;3290;47.716;9.070;2022-08-21T10:02:40;96987.03;;;26.54;70.30
6514;BME280;3290;47.716;9.070;2022-08-21T10:05:20;96988.00;;;26.19;70.89
6514;BME280;3290;47.716;9.070;2022-08-21T10:07:48;96978.06;;;25.89;73.64
6514;BME280;3290;47.716;9.070;2022-08-21T10:10:20;96982.81;;;26.69;71.58
6514;BME280;3290;47.716;9.070;2022-08-21T10:20:48;96970.94;;;27.63;63.06
6514;BME280;3290;47.716;9.070;2022-08-21T10:26:02;96965.53;;;28.25;62.28
6514;BME280;3290;47.716;9.070;2022-08-21T10:42:50;96972.31;;;28.31;58.19
6514;BME280;3290;47.716;9.070;2022-08-21T10:51:02;96963.56;;;28.05;57.75
6514;BME280;3290;47.716;9.070;2022-08-21T10:53:36;96958.25;;;28.83;57.39
6514;BME280;3290;47.716;9.070;2022-08-21T10:56:17;96952.16;;;28.65;54.57
6514;BME280;3290;47.716;9.070;2022-08-21T10:58:53;96950.75;;;29.08;57.74
6514;BME280;3290;47.716;9.070;2022-08-21T11:06:47;96942.28;;;29.10;52.97
6514;BME280;3290;47.716;9.070;2022-08-21T11:09:18;96942.84;;;28.63;51.75
6514;BME280;3290;47.716;9.070;2022-08-21T11:11:54;96931.66;;;28.93;53.32
6514;BME280;3290;47.716;9.070;2022-08-21T11:14:24;96931.75;;;28.56;54.46
6514;BME280;3290;47.716;9.070;2022-08-21T11:17:02;96927.28;;;28.80;52.32
6514;BME280;3290;47.716;9.070;2022-08-21T11:19:35;96927.13;;;28.57;50.16
6514;BME280;3290;47.716;9.070;2022-08-21T11:24:57;96926.78;;;28.09;50.97
6514;BME280;3290;47.716;9.070;2022-08-21T11:27:28;96914.91;;;28.30;50.96
6514;BME280;3290;47.716;9.070;2022-08-21T11:29:59;96915.06;;;28.83;52.01
6514;BME280;3290;47.716;9.070;2022-08-21T11:32:46;96910.16;;;29.17;51.25
6514;BME280;3290;47.716;9.070;2022-08-21T11:40:36;96903.91;;;28.15;50.35
6514;BME280;3290;47.716;9.070;2022-08-21T11:45:48;96890.28;;;29.21;49.85
6514;BME280;3290;47.716;9.070;2022-08-21T11:51:00;96886.56;;;29.26;46.41
6514;BME280;3290;47.716;9.070;2022-08-21T11:53:35;96883.13;;;28.64;49.21
6514;BME280;3290;47.716;9.070;2022-08-21T11:56:19;96883.00;;;29.34;47.25
6514;BME280;3290;47.716;9.070;2022-08-21T11:58:51;96875.81;;;28.85;45.04
6514;BME280;3290;47.716;9.070;2022-08-21T12:01:27;96874.06;;;28.89;48.99
6514;BME280;3290;47.716;9.070;2022-08-21T12:03:58;96871.59;;;29.60;50.47
6514;BME280;3290;47.716;9.070;2022-08-21T12:06:40;96872.94;;;29.22;48.24
6514;BME280;3290;47.716;9.070;2022-08-21T12:12:06;96869.28;;;29.06;48.14
6514;BME280;3290;47.716;9.070;2022-08-21T12:14:46;96861.44;;;29.57;47.94
6514;BME280;3290;47.716;9.070;2022-08-21T12:17:23;96861.28;;;29.74;47.10
6514;BME280;3290;47.716;9.070;2022-08-21T12:20:17;96858.53;;;29.62;49.49
6514;BME280;3290;47.716;9.070;2022-08-21T12:22:49;96864.84;;;29.22;49.22
6514;BME280;3290;47.716;9.070;2022-08-21T12:25:18;96855.25;;;29.57;47.10
6514;BME280;3290;47.716;9.070;2022-08-21T12:27:47;96848.13;;;30.08;49.05
6514;BME280;3290;47.716;9.070;2022-08-21T12:32:57;96857.69;;;30.06;46.28
6514;BME280;3290;47.716;9.070;2022-08-21T12:35:51;96852.88;;;29.11;45.55
6514;BME280;3290;47.716;9.070;2022-08-21T12:38:29;96846.84;;;29.70;46.94
6514;BME280;3290;47.716;9.070;2022-08-21T12:41:01;96837.88;;;29.02;45.04
6514;BME280;3290;47.716;9.070;2022-08-21T12:43:36;96842.91;;;28.92;46.49
6514;BME280;3290;47.716;9.070;2022-08-21T12:46:03;96842.88;;;29.12;46.43
6514;BME280;3290;47.716;9.070;2022-08-21T12:49:00;96844.56;;;29.16;48.21
6514;BME280;3290;47.716;9.070;2022-08-21T12:51:34;96844.41;;;29.01;47.13
6514;BME280;3290;47.716;9.070;2022-08-21T12:54:03;96838.25;;;29.56;46.93
6514;BME280;3290;47.716;9.070;2022-08-21T12:56:33;96839.94;;;29.17;46.35
6514;BME280;3290;47.716;9.070;2022-08-21T12:59:04;96837.63;;;28.95;45.90
6514;BME280;3290;47.716;9.070;2022-08-21T13:01:36;96841.41;;;29.14;45.58
6514;BME280;3290;47.716;9.070;2022-08-21T13:04:09;96835.66;;;29.48;47.02
6514;BME280;3290;47.716;9.070;2022-08-21T13:06:41;96837.81;;;29.54;44.33
6514;BME280;3290;47.716;9.070;2022-08-21T13:09:11;96833.66;;;29.13;45.09
6514;BME280;3290;47.716;9.070;2022-08-21T13:11:44;96829.84;;;29.58;47.00
6514;BME280;3290;47.716;9.070;2022-08-21T13:14:23;96835.22;;;29.14;43.11
6514;BME280;3290;47.716;9.070;2022-08-21T13:16:54;96830.28;;;29.72;43.49
6514;BME280;3290;47.716;9.070;2022-08-21T13:19:20;96833.25;;;29.23;43.42
6514;BME280;3290;47.716;9.070;2022-08-21T13:21:45;96823.41;;;29.50;42.45
6514;BME280;3290;47.716;9.070;2022-08-21T13:24:21;96822.50;;;29.58;41.65
6514;BME280;3290;47.716;9.070;2022-08-21T13:26:48;96829.47;;;29.71;41.70
6514;BME280;3290;47.716;9.070;2022-08-21T13:29:16;96825.63;;;29.48;42.21
6514;BME280;3290;47.716;9.070;2022-08-21T13:31:54;96820.47;;;29.67;41.68
6514;BME280;3290;47.716;9.070;2022-08-21T13:34:23;96824.44;;;29.82;40.94
6514;BME280;3290;47.716;9.070;2022-08-21T13:36:53;96817.81;;;29.91;41.71
6514;BME280;3290;47.716;9.070;2022-08-21T13:39:20;96819.81;;;30.06;40.98
6514;BME280;3290;47.716;9.070;2022-08-21T13:41:49;96815.34;;;29.98;42.67
6514;BME280;3290;47.716;9.070;2022-08-21T13:44:19;96814.84;;;29.48;41.36
6514;BME280;3290;47.716;9.070;2022-08-21T13:46:46;96813.53;;;30.14;39.78
6514;BME280;3290;47.716;9.070;2022-08-21T13:49:16;96815.75;;;29.41;40.00
6514;BME280;3290;47.716;9.070;2022-08-21T13:51:43;96816.00;;;29.83;41.99
6514;BME280;3290;47.716;9.070;2022-08-21T13:54:22;96815.78;;;29.76;41.22
6514;BME280;3290;47.716;9.070;2022-08-21T13:56:48;96809.84;;;28.63;40.98
6514;BME280;3290;47.716;9.070;2022-08-21T13:59:33;96815.41;;;29.10;41.36
6514;BME280;3290;47.716;9.070;2022-08-21T14:04:31;96806.75;;;29.96;40.29
6514;BME280;3290;47.716;9.070;2022-08-21T14:06:57;96808.56;;;29.68;41.85
6514;BME280;3290;47.716;9.070;2022-08-21T14:09:35;96808.31;;;29.49;41.99
6514;BME280;3290;47.716;9.070;2022-08-21T14:12:17;96803.03;;;29.65;41.12
6514;BME280;3290;47.716;9.070;2022-08-21T14:14:45;96810.13;;;29.45;40.94
6514;BME280;3290;47.716;9.070;2022-08-21T14:17:14;96804.06;;;29.72;43.34
6514;BME280;3290;47.716;9.070;2022-08-21T14:19:50;96792.94;;;29.74;43.46
6514;BME280;3290;47.716;9.070;2022-08-21T14:27:32;96800.91;;;29.70;42.89
6514;BME280;3290;47.716;9.070;2022-08-21T14:30:09;96795.75;;;29.77;41.33
6514;BME280;3290;47.716;9.070;2022-08-21T14:32:40;96796.50;;;29.54;41.59
6514;BME280;3290;47.716;9.070;2022-08-21T14:35:06;96789.84;;;29.28;41.48
6514;BME280;3290;47.716;9.070;2022-08-21T14:37:32;96796.25;;;29.03;40.60
6514;BME280;3290;47.716;9.070;2022-08-21T14:39:58;96786.25;;;28.92;40.98